Time;durP1;ratioP1;P1;durP2;ratioP2;P2;SDS_P1;SDS_P2;PMS_P1;PMS_P2;Temp;Humidity;BMP_temperature;BMP_pressure;BME280_temperature;BME280_humidity;BME280_pressure;Samples;Min_cycle;Max_cycle;Signal;HPM_P1;HPM_P2
2022/08/11 00:01:31;;;;;;;6.13;4.85;;;;;;;;;;5023098;28;20128;-63
2022/08/11 00:03:59;;;;;;;7.30;5.00;;;;;;;;;;5041410;28;20041;-63
2022/08/11 00:06:30;;;;;;;9.25;4.90;;;;;;;;;;5041991;28;20038;-64
2022/08/11 00:08:56;;;;;;;7.53;4.93;;;;;;;;;;5030333;28;20029;-63
2022/08/11 00:11:32;;;;;;;6.65;4.97;;;;;;;;;;5014334;28;20142;-63
2022/08/11 00:13:59;;;;;;;6.82;5.10;;;;;;;;;;5025130;28;20040;-63
2022/08/11 00:16:25;;;;;;;7.80;5.10;;;;;;;;;;5034373;28;20037;-63
2022/08/11 00:18:52;;;;;;;7.55;5.30;;;;;;;;;;5049207;28;20090;-63
2022/08/11 00:21:19;;;;;;;10.02;6.03;;;;;;;;;;5005442;28;20030;-63
2022/08/11 00:23:47;;;;;;;7.18;5.03;;;;;;;;;;5042778;28;20455;-63
2022/08/11 00:26:14;;;;;;;7.38;5.78;;;;;;;;;;5039430;28;20086;-63
2022/08/11 00:28:40;;;;;;;7.07;5.20;;;;;;;;;;5033573;28;20044;-63
2022/08/11 00:31:25;;;;;;;8.98;5.50;;;;;;;;;;5027817;28;20127;-63
2022/08/11 00:33:52;;;;;;;8.00;5.38;;;;;;;;;;5025941;28;20037;-63
2022/08/11 00:36:20;;;;;;;8.18;5.45;;;;;;;;;;5012748;28;20033;-63
2022/08/11 00:38:48;;;;;;;7.63;5.65;;;;;;;;;;5024095;28;20030;-63
2022/08/11 00:41:23;;;;;;;6.22;4.82;;;;;;;;;;5029805;28;20063;-63
2022/08/11 00:44:22;;;;;;;7.68;5.40;;;;;;;;;;5004138;28;20041;-63
2022/08/11 00:47:07;;;;;;;8.70;5.68;;;;;;;;;;5035588;28;20035;-63
2022/08/11 00:49:39;;;;;;;6.82;5.38;;;;;;;;;;5030205;28;20197;-63
2022/08/11 00:52:24;;;;;;;8.65;5.72;;;;;;;;;;5018046;28;20408;-64
2022/08/11 00:54:50;;;;;;;6.28;5.43;;;;;;;;;;5023571;28;20560;-64
2022/08/11 00:57:18;;;;;;;8.88;5.65;;;;;;;;;;5045512;28;20083;-63
2022/08/11 01:00:03;;;;;;;9.48;6.18;;;;;;;;;;5024266;28;20503;-64
2022/08/11 01:02:38;;;;;;;9.43;6.22;;;;;;;;;;5032595;28;20047;-63
2022/08/11 01:05:10;;;;;;;7.10;5.70;;;;;;;;;;5031551;28;20112;-63
2022/08/11 01:07:45;;;;;;;8.25;6.13;;;;;;;;;;5003100;28;20037;-63
2022/08/11 01:10:30;;;;;;;9.80;6.22;;;;;;;;;;5031359;28;20095;-63
2022/08/11 01:13:14;;;;;;;9.30;6.13;;;;;;;;;;5032582;28;20504;-63
2022/08/11 01:15:59;;;;;;;10.27;6.00;;;;;;;;;;5028433;28;20033;-63
2022/08/11 01:18:44;;;;;;;8.10;5.93;;;;;;;;;;5014245;28;20045;-63
2022/08/11 01:21:29;;;;;;;9.57;6.57;;;;;;;;;;5030392;28;20407;-63
2022/08/11 01:24:01;;;;;;;11.02;6.22;;;;;;;;;;5019841;28;20495;-63
2022/08/11 01:26:46;;;;;;;8.38;6.00;;;;;;;;;;5028352;28;20049;-63
2022/08/11 01:29:47;;;;;;;8.43;5.65;;;;;;;;;;5025347;28;20039;-63
2022/08/11 01:32:13;;;;;;;;;;;;;;;;;;4931748;29;20047;-63
2022/08/11 01:35:00;;;;;;;10.43;6.10;;;;;;;;;;5010273;28;19962;-63
2022/08/11 01:37:38;;;;;;;8.55;5.85;;;;;;;;;;5029080;28;20056;-63
2022/08/11 01:40:23;;;;;;;7.03;5.95;;;;;;;;;;5023941;28;20042;-63
2022/08/11 01:45:56;;;;;;;10.52;6.32;;;;;;;;;;5031908;28;20045;-63
2022/08/11 01:48:32;;;;;;;9.43;5.95;;;;;;;;;;5032246;28;20083;-63
2022/08/11 01:51:02;;;;;;;9.52;6.00;;;;;;;;;;5031858;28;20072;-63
2022/08/11 01:53:28;;;;;;;8.65;6.10;;;;;;;;;;5037833;28;20052;-63
2022/08/11 01:55:56;;;;;;;9.90;6.53;;;;;;;;;;5030662;28;20034;-63
2022/08/11 01:58:34;;;;;;;7.82;6.28;;;;;;;;;;5021765;28;20052;-63
2022/08/11 02:01:15;;;;;;;9.95;6.18;;;;;;;;;;5022239;28;20037;-63
2022/08/11 02:03:45;;;;;;;8.55;6.25;;;;;;;;;;5041104;28;20390;-63
2022/08/11 02:09:01;;;;;;;8.40;6.43;;;;;;;;;;5035191;28;20399;-63
2022/08/11 02:11:29;;;;;;;8.95;6.22;;;;;;;;;;5031789;28;20048;-63
2022/08/11 02:14:31;;;;;;;10.20;6.72;;;;;;;;;;5026420;28;20038;-63
2022/08/11 02:16:57;;;;;;;8.55;6.50;;;;;;;;;;4965528;28;20052;-63
2022/08/11 02:25:26;;;;;;;9.63;6.45;;;;;;;;;;5038498;28;20041;-63
2022/08/11 02:27:58;;;;;;;9.63;6.50;;;;;;;;;;5025477;28;20033;-63
2022/08/11 02:30:25;;;;;;;8.77;6.95;;;;;;;;;;5029546;28;20508;-63
2022/08/11 02:35:46;;;;;;;8.10;6.40;;;;;;;;;;5051537;28;20132;-63
2022/08/11 02:38:44;;;;;;;9.63;7.13;;;;;;;;;;5034697;28;20044;-63
2022/08/11 02:44:20;;;;;;;9.27;6.77;;;;;;;;;;5029147;28;20037;-63
2022/08/11 02:46:58;;;;;;;11.70;6.90;;;;;;;;;;5020913;28;20095;-63
2022/08/11 02:49:55;;;;;;;9.00;7.25;;;;;;;;;;5038463;28;20054;-63
2022/08/11 02:52:30;;;;;;;10.32;7.20;;;;;;;;;;5014588;28;20044;-63
2022/08/11 02:55:00;;;;;;;10.13;6.97;;;;;;;;;;5047042;28;20566;-63
2022/08/11 02:57:45;;;;;;;10.37;7.57;;;;;;;;;;5020402;28;20046;-63
2022/08/11 03:00:12;;;;;;;10.13;6.95;;;;;;;;;;5032845;28;20518;-63
2022/08/11 03:02:41;;;;;;;11.63;7.40;;;;;;;;;;5029009;28;20255;-63
2022/08/11 03:05:15;;;;;;;10.32;7.25;;;;;;;;;;5043460;28;20487;-63
2022/08/11 03:07:58;;;;;;;12.48;8.05;;;;;;;;;;5030456;28;20037;-64
2022/08/11 03:10:27;;;;;;;11.85;7.85;;;;;;;;;;5031764;28;20511;-63
2022/08/11 03:18:55;;;;;;;11.65;8.45;;;;;;;;;;5020028;28;20116;-64
2022/08/11 03:21:23;;;;;;;11.07;8.63;;;;;;;;;;5017630;28;20060;-64
2022/08/11 03:23:55;;;;;;;11.18;8.38;;;;;;;;;;5004989;28;20042;-64
2022/08/11 03:26:37;;;;;;;14.50;8.57;;;;;;;;;;5002534;28;20068;-64
2022/08/11 03:29:10;;;;;;;13.27;8.80;;;;;;;;;;4987658;28;20047;-64
2022/08/11 03:31:56;;;;;;;13.02;8.98;;;;;;;;;;4989035;28;20117;-64
2022/08/11 03:34:24;;;;;;;14.65;9.75;;;;;;;;;;5011130;28;20040;-63
2022/08/11 03:36:59;;;;;;;13.68;9.57;;;;;;;;;;4985194;28;20553;-64
2022/08/11 03:39:44;;;;;;;12.63;8.48;;;;;;;;;;5000614;28;20046;-63
2022/08/11 03:42:16;;;;;;;15.38;9.65;;;;;;;;;;4994089;28;20030;-63
2022/08/11 03:45:00;;;;;;;14.05;9.98;;;;;;;;;;4994290;28;20496;-64
2022/08/11 03:47:37;;;;;;;14.15;9.60;;;;;;;;;;4993588;28;20435;-63
2022/08/11 03:50:07;;;;;;;15.55;10.38;;;;;;;;;;4992484;28;20129;-64
2022/08/11 03:52:47;;;;;;;12.32;9.15;;;;;;;;;;5010667;28;20455;-64
2022/08/11 03:55:32;;;;;;;11.80;9.43;;;;;;;;;;5000558;28;20403;-64
2022/08/11 03:58:07;;;;;;;12.00;9.23;;;;;;;;;;4988495;28;20096;-64
2022/08/11 04:00:53;;;;;;;14.40;9.60;;;;;;;;;;4989234;28;20057;-63
2022/08/11 04:03:45;;;;;;;13.50;9.82;;;;;;;;;;4995735;28;20519;-64
2022/08/11 04:06:27;;;;;;;12.73;10.13;;;;;;;;;;4988691;28;20038;-63
2022/08/11 04:09:05;;;;;;;14.90;10.65;;;;;;;;;;5000042;28;20034;-64
2022/08/11 04:11:40;;;;;;;11.98;9.05;;;;;;;;;;5004314;28;20092;-64
2022/08/11 04:17:25;;;;;;;13.48;9.45;;;;;;;;;;5001256;28;20125;-63
2022/08/11 04:19:54;;;;;;;9.55;7.88;;;;;;;;;;4999868;28;20061;-63
2022/08/11 04:22:20;;;;;;;9.68;7.53;;;;;;;;;;5001237;28;20038;-63
2022/08/11 04:24:59;;;;;;;9.77;7.95;;;;;;;;;;4994052;28;20045;-63
2022/08/11 04:27:34;;;;;;;8.57;6.82;;;;;;;;;;4997197;28;20044;-64
2022/08/11 04:30:03;;;;;;;9.40;7.70;;;;;;;;;;4993823;28;20057;-64
2022/08/11 04:32:29;;;;;;;9.68;7.75;;;;;;;;;;5009094;28;20522;-63
2022/08/11 04:35:14;;;;;;;12.23;8.90;;;;;;;;;;4998402;28;20065;-63
2022/08/11 04:37:55;;;;;;;10.05;7.45;;;;;;;;;;4996146;28;20065;-64
2022/08/11 04:40:33;;;;;;;11.27;9.13;;;;;;;;;;4983796;28;20060;-64
2022/08/11 04:45:56;;;;;;;10.73;8.60;;;;;;;;;;4986223;28;20035;-64
2022/08/11 05:03:53;;;;;;;14.50;11.30;;;;;;;;;;4984399;28;20473;-64
2022/08/11 05:06:34;;;;;;;16.98;12.45;;;;;;;;;;4993469;28;20048;-64
2022/08/11 05:09:18;;;;;;;16.42;11.43;;;;;;;;;;5000858;28;20050;-64
2022/08/11 05:11:59;;;;;;;16.33;11.65;;;;;;;;;;4975641;28;20051;-64
2022/08/11 05:37:09;;;;;;;16.83;11.90;;;;;;;;;;4992945;28;20042;-64
2022/08/11 05:56:27;;;;;;;14.23;11.02;;;;;;;;;;4992519;28;20046;-62
2022/08/11 05:58:54;;;;;;;15.18;11.60;;;;;;;;;;5000350;28;20046;-63
2022/08/11 06:01:24;;;;;;;16.27;11.80;;;;;;;;;;4981811;28;20097;-62
2022/08/11 06:06:40;;;;;;;16.20;11.77;;;;;;;;;;4979601;28;20042;-63
2022/08/11 06:09:07;;;;;;;15.80;11.15;;;;;;;;;;4999605;28;20049;-63
2022/08/11 06:11:41;;;;;;;12.25;10.38;;;;;;;;;;4974695;28;20046;-62
2022/08/11 06:14:09;;;;;;;14.45;10.80;;;;;;;;;;4986497;28;20045;-63
2022/08/11 06:16:36;;;;;;;17.92;11.20;;;;;;;;;;4986912;28;20107;-63
2022/08/11 06:19:02;;;;;;;15.95;10.85;;;;;;;;;;4988821;28;20045;-63
2022/08/11 06:21:31;;;;;;;13.93;10.40;;;;;;;;;;4998160;28;20400;-63
2022/08/11 06:23:58;;;;;;;14.77;10.13;;;;;;;;;;4989166;28;20042;-63
2022/08/11 06:26:24;;;;;;;11.75;9.80;;;;;;;;;;4989810;28;20118;-63
2022/08/11 06:28:50;;;;;;;10.57;8.75;;;;;;;;;;4989446;28;20065;-63
2022/08/11 06:31:18;;;;;;;13.32;8.68;;;;;;;;;;4997521;28;20062;-63
2022/08/11 06:33:52;;;;;;;12.05;8.82;;;;;;;;;;4997823;28;20034;-63
2022/08/11 06:36:33;;;;;;;12.57;9.75;;;;;;;;;;5000945;28;20042;-63
2022/08/11 06:39:08;;;;;;;13.60;9.05;;;;;;;;;;4991789;28;20263;-63
2022/08/11 06:41:40;;;;;;;10.85;8.85;;;;;;;;;;4990101;28;20050;-62
2022/08/11 06:44:12;;;;;;;11.20;8.57;;;;;;;;;;4993725;28;20449;-63
2022/08/11 06:46:39;;;;;;;11.75;8.45;;;;;;;;;;4991291;28;20128;-63
2022/08/11 06:51:10;;;;;;;10.90;8.52;;;;;;;;;;4987478;28;20046;-63
2022/08/11 06:51:53;;;;;;;12.02;7.88;;;;;;;;;;4999990;28;20049;-62
2022/08/11 06:54:20;;;;;;;11.50;8.00;;;;;;;;;;4997654;28;20105;-63
2022/08/11 07:02:29;;;;;;;8.60;6.82;;;;;;;;;;4988768;28;20401;-63
2022/08/11 07:05:02;;;;;;;10.57;7.20;;;;;;;;;;4988912;28;20116;-63
2022/08/11 07:16:08;;;;;;;16.80;7.30;;;;;;;;;;4993396;28;20046;-62
2022/08/11 07:29:42;;;;;;;8.15;5.22;;;;;;;;;;5002758;28;20049;-63
2022/08/11 07:32:35;;;;;;;9.02;5.20;;;;;;;;;;4997805;28;20093;-63
2022/08/11 07:35:13;;;;;;;5.93;4.13;;;;;;;;;;4998383;28;20131;-62
2022/08/11 07:37:43;;;;;;;5.07;4.13;;;;;;;;;;4988996;28;20069;-63
2022/08/11 07:40:10;;;;;;;4.50;4.05;;;;;;;;;;4999910;28;20038;-63
2022/08/11 07:42:37;;;;;;;7.40;3.90;;;;;;;;;;4987331;28;20030;-63
2022/08/11 07:53:25;;;;;;;6.10;2.78;;;;;;;;;;4993145;28;20046;-63
2022/08/11 07:55:52;;;;;;;6.93;2.85;;;;;;;;;;4986627;28;20408;-63
2022/08/11 08:17:50;;;;;;;2.95;1.70;;;;;;;;;;4989948;28;20050;-60
2022/08/11 08:20:18;;;;;;;2.83;2.03;;;;;;;;;;4987896;28;20111;-61
2022/08/11 08:22:46;;;;;;;2.70;1.50;;;;;;;;;;4988070;28;20485;-61
2022/08/11 08:25:13;;;;;;;5.20;1.77;;;;;;;;;;4982985;28;20039;-62
2022/08/11 08:27:42;;;;;;;5.40;1.90;;;;;;;;;;5001943;28;20061;-62
2022/08/11 08:32:56;;;;;;;4.10;1.92;;;;;;;;;;4984327;28;20552;-62
2022/08/11 08:35:22;;;;;;;2.83;1.70;;;;;;;;;;4991347;28;20038;-63
2022/08/11 08:37:50;;;;;;;4.53;1.77;;;;;;;;;;5006460;28;20040;-63
2022/08/11 08:40:17;;;;;;;5.43;1.75;;;;;;;;;;4996666;28;20093;-63
2022/08/11 08:42:53;;;;;;;3.22;1.52;;;;;;;;;;4999228;28;20046;-63
2022/08/11 08:45:20;;;;;;;2.55;1.70;;;;;;;;;;4984614;28;20401;-63
2022/08/11 08:48:00;;;;;;;9.02;1.88;;;;;;;;;;4983237;28;20074;-63
2022/08/11 08:51:32;;;;;;;4.82;1.35;;;;;;;;;;4990813;28;20134;-63
2022/08/11 08:53:13;;;;;;;4.95;1.75;;;;;;;;;;4989682;28;20053;-62
2022/08/11 08:55:40;;;;;;;2.45;1.33;;;;;;;;;;4990772;28;20041;-63
2022/08/11 08:58:07;;;;;;;4.40;1.40;;;;;;;;;;4978137;28;20054;-63
2022/08/11 09:00:44;;;;;;;2.88;1.50;;;;;;;;;;4979944;28;20042;-64
2022/08/11 09:03:10;;;;;;;5.07;1.30;;;;;;;;;;4979212;28;20043;-63
2022/08/11 09:05:36;;;;;;;3.15;1.60;;;;;;;;;;4979983;28;20416;-63
2022/08/11 09:08:03;;;;;;;1.80;1.40;;;;;;;;;;4989500;28;20181;-63
2022/08/11 09:10:29;;;;;;;4.15;1.70;;;;;;;;;;4985474;28;20533;-63
2022/08/11 09:12:56;;;;;;;4.10;2.15;;;;;;;;;;4996899;28;20041;-64
2022/08/11 09:15:23;;;;;;;4.00;1.85;;;;;;;;;;5010034;22;20042;-64
2022/08/11 09:17:57;;;;;;;5.45;2.35;;;;;;;;;;4988038;28;20034;-64
2022/08/11 09:20:28;;;;;;;4.30;2.10;;;;;;;;;;4990044;28;20070;-65
2022/08/11 09:28:29;;;;;;;3.63;1.85;;;;;;;;;;4979847;28;20047;-65
2022/08/11 09:30:56;;;;;;;4.03;2.13;;;;;;;;;;4972194;28;20054;-66
2022/08/11 09:33:23;;;;;;;2.58;1.95;;;;;;;;;;4971081;28;20049;-66
2022/08/11 09:35:50;;;;;;;4.70;1.77;;;;;;;;;;4971555;28;20086;-66
2022/08/11 09:41:04;;;;;;;4.95;1.77;;;;;;;;;;4981800;28;20073;-66
2022/08/11 09:46:16;;;;;;;4.55;1.77;;;;;;;;;;4978687;28;20439;-65
2022/08/11 09:48:44;;;;;;;2.58;1.50;;;;;;;;;;4970254;28;20077;-66
2022/08/11 09:51:10;;;;;;;2.60;1.77;;;;;;;;;;4986323;28;20452;-66
2022/08/11 09:53:38;;;;;;;5.00;1.70;;;;;;;;;;4974186;28;20034;-66
2022/08/11 09:58:12;;;;;;;3.15;1.70;;;;;;;;;;4972760;28;20455;-66
2022/08/11 09:58:52;;;;;;;6.38;1.60;;;;;;;;;;4965900;28;20815;-65
2022/08/11 10:01:26;;;;;;;3.88;1.75;;;;;;;;;;4977224;28;20511;-65
2022/08/11 10:03:56;;;;;;;3.28;1.80;;;;;;;;;;4968252;28;20035;-66
2022/08/11 10:09:08;;;;;;;2.17;1.35;;;;;;;;;;4977257;28;20051;-65
2022/08/11 10:11:36;;;;;;;3.90;1.60;;;;;;;;;;4977331;28;20039;-66
2022/08/11 10:16:47;;;;;;;5.90;1.58;;;;;;;;;;4970318;28;20408;-66
2022/08/11 10:19:18;;;;;;;2.67;1.45;;;;;;;;;;4967568;28;20038;-65
2022/08/11 10:26:48;;;;;;;2.35;1.50;;;;;;;;;;4969954;28;20049;-66
2022/08/11 10:27:17;;;;;;;2.30;1.40;;;;;;;;;;4968960;28;20062;-66
2022/08/11 10:35:14;;;;;;;1.75;1.23;;;;;;;;;;4971330;28;20070;-65
2022/08/11 10:37:42;;;;;;;2.97;1.60;;;;;;;;;;4971242;28;20046;-65
2022/08/11 10:40:10;;;;;;;2.85;1.27;;;;;;;;;;4967958;28;20046;-64
2022/08/11 10:48:09;;;;;;;1.92;1.40;;;;;;;;;;4970458;28;20038;-65
2022/08/11 10:58:52;;;;;;;2.40;1.60;;;;;;;;;;4971136;28;20082;-65
2022/08/11 11:01:23;;;;;;;1.73;1.55;;;;;;;;;;4976189;28;20512;-65
2022/08/11 11:03:54;;;;;;;4.00;1.52;;;;;;;;;;4977746;28;20122;-65
2022/08/11 11:06:25;;;;;;;2.63;1.48;;;;;;;;;;4975645;28;20126;-65
2022/08/11 11:08:56;;;;;;;2.42;1.55;;;;;;;;;;4969769;28;20034;-66
2022/08/11 11:17:54;;;;;;;2.33;1.50;;;;;;;;;;4966245;28;20042;-66
2022/08/11 11:19:41;;;;;;;4.55;1.55;;;;;;;;;;4973431;28;20046;-66
2022/08/11 11:25:00;;;;;;;1.58;1.45;;;;;;;;;;4972458;28;20042;-66
2022/08/11 11:27:35;;;;;;;3.33;1.30;;;;;;;;;;4977646;28;20043;-66
2022/08/11 11:30:03;;;;;;;2.97;1.58;;;;;;;;;;4973832;28;20074;-66
2022/08/11 11:32:41;;;;;;;1.63;1.38;;;;;;;;;;4984427;28;20087;-65
2022/08/11 11:35:07;;;;;;;2.30;1.60;;;;;;;;;;4978334;28;20612;-66
2022/08/11 11:37:36;;;;;;;3.95;1.42;;;;;;;;;;4971544;28;20053;-66
2022/08/11 11:40:09;;;;;;;2.97;1.52;;;;;;;;;;4974613;28;20061;-66
2022/08/11 11:42:35;;;;;;;2.58;1.20;;;;;;;;;;4972868;28;20043;-65
2022/08/11 11:45:02;;;;;;;2.03;1.50;;;;;;;;;;4979746;28;20043;-66
2022/08/11 11:47:29;;;;;;;4.55;1.77;;;;;;;;;;4983156;28;20038;-66
2022/08/11 11:49:55;;;;;;;3.15;1.42;;;;;;;;;;4972766;28;20069;-66
2022/08/11 11:52:22;;;;;;;3.15;1.70;;;;;;;;;;4972738;28;20047;-66
2022/08/11 11:54:49;;;;;;;2.05;1.20;;;;;;;;;;4972752;28;20039;-66
2022/08/11 12:02:45;;;;;;;1.48;1.35;;;;;;;;;;4970688;28;20035;-66
2022/08/11 12:05:13;;;;;;;1.92;1.33;;;;;;;;;;4972941;28;20432;-66
2022/08/11 12:10:25;;;;;;;2.58;1.50;;;;;;;;;;4968866;28;20050;-65
2022/08/11 12:15:36;;;;;;;3.17;1.35;;;;;;;;;;4971534;28;20038;-66
2022/08/11 12:18:03;;;;;;;4.95;1.48;;;;;;;;;;4972603;28;20420;-66
2022/08/11 12:20:29;;;;;;;3.33;1.30;;;;;;;;;;4972603;28;20050;-65
2022/08/11 12:28:25;;;;;;;2.33;1.05;;;;;;;;;;4972509;28;20066;-65
2022/08/11 12:30:52;;;;;;;2.63;1.40;;;;;;;;;;4970887;28;20046;-65
2022/08/11 12:33:19;;;;;;;2.65;1.30;;;;;;;;;;4970945;28;20114;-66
2022/08/11 12:35:46;;;;;;;3.38;1.95;;;;;;;;;;4974072;28;20070;-65
2022/08/11 12:38:13;;;;;;;1.95;1.15;;;;;;;;;;4975887;28;20043;-65
2022/08/11 12:46:32;;;;;;;1.83;1.08;;;;;;;;;;4971170;28;20042;-65
2022/08/11 12:51:57;;;;;;;2.67;1.20;;;;;;;;;;4973941;28;20050;-65
2022/08/11 12:54:50;;;;;;;2.38;1.52;;;;;;;;;;4973435;28;20039;-66
2022/08/11 13:05:37;;;;;;;1.70;0.90;;;;;;;;;;4971037;28;20039;-66
2022/08/11 13:08:03;;;;;;;5.22;0.98;;;;;;;;;;4969951;28;20038;-66
2022/08/11 13:13:17;;;;;;;1.75;1.02;;;;;;;;;;4968457;28;20047;-66
2022/08/11 13:15:43;;;;;;;2.10;1.30;;;;;;;;;;4972710;28;20050;-65
2022/08/11 13:18:10;;;;;;;5.70;1.27;;;;;;;;;;4972580;28;20042;-65
2022/08/11 13:20:36;;;;;;;3.03;1.02;;;;;;;;;;4968016;28;20039;-65
2022/08/11 13:23:03;;;;;;;1.42;0.90;;;;;;;;;;4971281;28;20045;-65
2022/08/11 13:25:30;;;;;;;2.10;1.10;;;;;;;;;;4967395;28;20488;-65
2022/08/11 13:27:57;;;;;;;4.63;1.15;;;;;;;;;;4969266;28;20034;-65
2022/08/11 13:33:15;;;;;;;1.80;1.20;;;;;;;;;;4971496;28;20050;-65
2022/08/11 13:35:41;;;;;;;2.08;1.00;;;;;;;;;;4973865;28;20046;-65
2022/08/11 13:38:12;;;;;;;2.13;1.10;;;;;;;;;;4970500;28;20039;-66
2022/08/11 13:40:38;;;;;;;3.53;1.13;;;;;;;;;;4987591;28;20173;-65
2022/08/11 13:43:05;;;;;;;2.95;1.33;;;;;;;;;;4969074;28;20057;-65
2022/08/11 13:45:31;;;;;;;1.85;1.10;;;;;;;;;;4968478;28;20050;-65
2022/08/11 13:47:58;;;;;;;1.42;1.05;;;;;;;;;;4970180;28;20039;-65
2022/08/11 13:53:16;;;;;;;4.15;1.17;;;;;;;;;;4967600;28;20121;-66
2022/08/11 13:55:42;;;;;;;2.72;0.90;;;;;;;;;;4968914;28;20173;-66
2022/08/11 13:58:12;;;;;;;1.80;1.00;;;;;;;;;;4968592;28;20042;-65
2022/08/11 14:00:40;;;;;;;2.45;1.00;;;;;;;;;;4969519;28;20043;-65
2022/08/11 14:03:10;;;;;;;3.15;1.13;;;;;;;;;;4975677;28;20121;-65
2022/08/11 14:05:36;;;;;;;;;;;;;;;;;;4995294;28;20170;-65
2022/08/11 14:08:04;;;;;;;2.40;1.10;;;;;;;;;;4970164;28;19985;-65
2022/08/11 14:10:32;;;;;;;1.23;1.00;;;;;;;;;;5000089;28;20069;-65
2022/08/11 14:15:49;;;;;;;2.38;1.10;;;;;;;;;;4973859;28;20039;-65
2022/08/11 14:18:20;;;;;;;2.58;1.10;;;;;;;;;;4974868;28;20050;-65
2022/08/11 14:23:44;;;;;;;2.08;0.90;;;;;;;;;;4967839;28;20046;-65
2022/08/11 14:26:22;;;;;;;1.10;0.95;;;;;;;;;;4969540;28;20038;-65
2022/08/11 14:28:52;;;;;;;1.05;0.95;;;;;;;;;;5905151;23;21155;-63
2022/08/11 14:31:18;;;;;;;2.05;1.10;;;;;;;;;;5036837;28;20059;-64
2022/08/11 14:33:45;;;;;;;3.85;1.00;;;;;;;;;;5043511;28;20037;-62
2022/08/11 14:36:11;;;;;;;3.38;1.42;;;;;;;;;;5028030;28;20048;-62
2022/08/11 14:38:39;;;;;;;1.58;0.98;;;;;;;;;;5025365;28;20037;-62
2022/08/11 14:49:22;;;;;;;2.70;1.13;;;;;;;;;;5049901;28;20124;-63
2022/08/11 14:51:49;;;;;;;2.03;1.20;;;;;;;;;;5032887;28;20041;-63
2022/08/11 14:57:02;;;;;;;2.08;1.08;;;;;;;;;;5044884;28;20041;-63
2022/08/11 14:59:28;;;;;;;2.78;1.20;;;;;;;;;;5026847;28;20048;-63
2022/08/11 15:04:39;;;;;;;1.88;1.10;;;;;;;;;;5043495;28;20045;-64
2022/08/11 15:07:05;;;;;;;2.47;1.08;;;;;;;;;;5046719;28;20128;-64
2022/08/11 15:09:32;;;;;;;2.55;1.27;;;;;;;;;;5051305;28;20037;-64
2022/08/11 15:12:07;;;;;;;4.55;1.20;;;;;;;;;;5053277;28;20573;-64
2022/08/11 15:17:19;;;;;;;5.80;1.10;;;;;;;;;;5052483;28;20036;-64
2022/08/11 15:25:18;;;;;;;3.00;1.30;;;;;;;;;;5052334;28;20037;-64
2022/08/11 15:38:53;;;;;;;3.72;1.20;;;;;;;;;;5050827;28;20037;-64
2022/08/11 15:46:57;;;;;;;1.00;0.90;;;;;;;;;;5028558;28;20040;-64
2022/08/11 15:49:29;;;;;;;2.67;1.10;;;;;;;;;;5053965;28;20037;-64
2022/08/11 15:52:02;;;;;;;2.15;1.10;;;;;;;;;;5052566;28;20112;-64
2022/08/11 15:54:30;;;;;;;1.13;1.00;;;;;;;;;;5048675;28;20029;-64
2022/08/11 15:56:57;;;;;;;2.42;1.10;;;;;;;;;;5052871;28;20504;-64
2022/08/11 16:04:56;;;;;;;2.08;1.30;;;;;;;;;;5045231;28;20053;-64
2022/08/11 16:07:30;;;;;;;3.78;1.20;;;;;;;;;;5053325;28;20036;-64
2022/08/11 16:10:04;;;;;;;3.08;1.20;;;;;;;;;;5052333;28;20048;-64
2022/08/11 16:18:42;;;;;;;5.55;1.52;;;;;;;;;;5046665;28;20045;-64
2022/08/11 16:21:11;;;;;;;3.83;1.27;;;;;;;;;;5051901;28;20041;-64
2022/08/11 16:23:38;;;;;;;4.43;1.27;;;;;;;;;;5048304;28;20120;-64
2022/08/11 16:26:05;;;;;;;2.67;1.15;;;;;;;;;;5049241;28;20036;-64
2022/08/11 16:28:33;;;;;;;4.60;1.13;;;;;;;;;;5048670;28;20079;-64
2022/08/11 16:31:00;;;;;;;4.63;1.30;;;;;;;;;;5047429;28;20041;-63
2022/08/11 16:33:27;;;;;;;2.97;1.30;;;;;;;;;;5046556;28;20040;-63
2022/08/11 16:38:39;;;;;;;3.70;1.15;;;;;;;;;;5042727;28;20036;-64
2022/08/11 16:41:10;;;;;;;2.20;1.30;;;;;;;;;;5051774;28;20116;-64
2022/08/11 16:49:17;;;;;;;2.28;1.70;;;;;;;;;;5051297;28;20037;-64
2022/08/11 16:51:44;;;;;;;1.90;1.33;;;;;;;;;;5050303;28;20041;-64
2022/08/11 16:54:10;;;;;;;3.25;1.25;;;;;;;;;;5048501;28;20029;-64
2022/08/11 16:56:36;;;;;;;1.92;1.33;;;;;;;;;;5048056;28;20041;-65
2022/08/11 16:59:14;;;;;;;3.08;1.27;;;;;;;;;;5048709;28;20087;-64
2022/08/11 17:02:00;;;;;;;4.25;1.50;;;;;;;;;;5040675;28;20048;-64
2022/08/11 17:13:12;;;;;;;2.63;1.42;;;;;;;;;;5043961;28;20128;-64
2022/08/11 17:18:44;;;;;;;2.75;1.25;;;;;;;;;;5027782;28;20056;-64
2022/08/11 17:21:13;;;;;;;2.97;1.40;;;;;;;;;;5044010;28;20124;-65
2022/08/11 17:23:46;;;;;;;3.17;1.30;;;;;;;;;;5026381;28;20044;-64
2022/08/11 17:26:18;;;;;;;2.67;1.55;;;;;;;;;;5044296;28;20037;-64
2022/08/11 17:28:50;;;;;;;1.58;1.25;;;;;;;;;;5042272;28;20045;-64
2022/08/11 17:36:50;;;;;;;3.22;1.40;;;;;;;;;;5043975;28;20041;-64
2022/08/11 17:39:17;;;;;;;2.50;1.50;;;;;;;;;;5043280;28;20102;-64
2022/08/11 17:50:02;;;;;;;5.20;1.70;;;;;;;;;;5023953;28;20052;-64
2022/08/11 18:01:37;;;;;;;5.22;1.70;;;;;;;;;;5040230;28;20049;-64
2022/08/11 18:03:57;;;;;;;4.18;1.70;;;;;;;;;;5003930;28;20044;-64
2022/08/11 18:06:24;;;;;;;5.07;1.70;;;;;;;;;;5041351;28;20037;-64
